createdAt,value
2022-08-10T00:01:44.931Z,4.20
2022-08-10T00:04:21.530Z,2.90
2022-08-10T00:06:51.418Z,3.20
2022-08-10T00:09:21.401Z,3.50
2022-08-10T00:11:49.717Z,3.23
2022-08-10T00:14:17.982Z,3.60
2022-08-10T00:16:46.292Z,3.63
2022-08-10T00:19:16.668Z,3.77
2022-08-10T00:21:47.595Z,3.70
2022-08-10T00:24:16.115Z,3.60
2022-08-10T00:28:01.472Z,3.97
2022-08-10T00:29:34.694Z,4.33
2022-08-10T00:32:03.083Z,5.27
2022-08-10T00:34:33.066Z,4.40
2022-08-10T00:37:01.730Z,5.60
2022-08-10T00:39:35.864Z,4.13
2022-08-10T00:42:08.237Z,4.50
2022-08-10T00:44:37.936Z,4.80
2022-08-10T00:47:06.739Z,4.60
2022-08-10T00:49:35.589Z,4.70
2022-08-10T00:52:05.015Z,5.00
2022-08-10T00:54:33.610Z,4.80
2022-08-10T00:57:16.970Z,4.37
2022-08-10T00:59:59.114Z,4.57
2022-08-10T01:02:29.555Z,4.97
2022-08-10T01:05:02.271Z,5.23
2022-08-10T01:08:02.048Z,4.63
2022-08-10T01:10:42.770Z,4.50
2022-08-10T01:13:18.224Z,4.73
2022-08-10T01:15:57.117Z,5.33
2022-08-10T01:18:37.786Z,5.20
2022-08-10T01:21:54.168Z,4.70
2022-08-10T01:25:00.320Z,5.40
2022-08-10T01:27:34.158Z,4.63
2022-08-10T01:30:07.984Z,4.80
2022-08-10T01:32:44.199Z,4.73
2022-08-10T01:35:18.569Z,5.17
2022-08-10T01:37:52.646Z,4.37
2022-08-10T01:40:26.791Z,5.03
2022-08-10T01:43:07.927Z,4.70
2022-08-10T01:45:45.593Z,4.57
2022-08-10T01:48:31.667Z,5.40
2022-08-10T01:51:10.945Z,4.80
2022-08-10T01:53:44.212Z,5.10
2022-08-10T01:56:15.696Z,5.27
2022-08-10T01:58:46.311Z,5.23
2022-08-10T02:01:19.997Z,4.50
2022-08-10T02:04:04.344Z,5.20
2022-08-10T02:06:36.969Z,4.80
2022-08-10T02:09:07.865Z,5.30
2022-08-10T02:12:07.735Z,5.67
2022-08-10T02:14:32.952Z,5.23
2022-08-10T02:17:06.787Z,4.63
2022-08-10T02:19:37.712Z,5.20
2022-08-10T02:22:36.059Z,5.43
2022-08-10T02:24:57.512Z,5.53
2022-08-10T02:27:29.287Z,5.37
2022-08-10T02:29:59.406Z,5.10
2022-08-10T02:32:37.893Z,4.67
2022-08-10T02:35:21.972Z,4.73
2022-08-10T02:37:54.173Z,5.53
2022-08-10T02:45:18.298Z,5.93
2022-08-10T02:45:27.644Z,5.30
2022-08-10T02:46:18.286Z,5.30
2022-08-10T02:48:56.307Z,5.73
2022-08-10T02:52:07.541Z,5.53
2022-08-10T02:54:23.909Z,5.60
2022-08-10T02:56:56.785Z,5.17
2022-08-10T02:59:40.168Z,5.40
2022-08-10T03:02:12.087Z,5.50
2022-08-10T03:04:55.627Z,6.00
2022-08-10T03:07:43.281Z,5.40
2022-08-10T03:10:17.809Z,5.10
2022-08-10T03:12:50.611Z,5.77
2022-08-10T03:15:21.080Z,5.07
2022-08-10T03:17:57.479Z,5.10
2022-08-10T03:20:36.830Z,5.30
2022-08-10T03:23:11.227Z,5.73
2022-08-10T03:25:40.214Z,5.93
2022-08-10T03:28:10.304Z,5.83
2022-08-10T03:30:47.045Z,5.90
2022-08-10T03:33:16.884Z,5.57
2022-08-10T03:36:41.692Z,4.97
2022-08-10T03:38:35.524Z,4.80
2022-08-10T03:41:05.547Z,4.90
2022-08-10T03:43:35.732Z,4.77
2022-08-10T03:46:09.596Z,5.33
2022-08-10T03:48:48.874Z,4.43
2022-08-10T03:51:21.696Z,4.70
2022-08-10T03:54:04.335Z,4.80
2022-08-10T03:56:36.224Z,4.83
2022-08-10T03:59:05.856Z,4.53
2022-08-10T04:02:45.385Z,4.20
2022-08-10T04:04:25.376Z,4.93
2022-08-10T04:07:00.368Z,4.47
2022-08-10T04:09:42.980Z,4.57
2022-08-10T04:12:20.366Z,4.33
2022-08-10T04:14:51.927Z,3.80
2022-08-10T04:18:02.968Z,4.10
2022-08-10T04:20:19.622Z,3.90
2022-08-10T04:22:53.656Z,3.97
2022-08-10T04:25:23.273Z,4.30
2022-08-10T04:27:52.250Z,4.70
2022-08-10T04:30:20.764Z,4.30
2022-08-10T04:32:55.198Z,4.60
2022-08-10T04:35:25.287Z,4.10
2022-08-10T04:37:58.045Z,4.27
2022-08-10T04:40:29.092Z,4.43
2022-08-10T04:43:05.785Z,4.03
2022-08-10T04:45:49.888Z,4.37
2022-08-10T04:48:42.400Z,4.57
2022-08-10T04:51:16.869Z,4.60
2022-08-10T04:54:05.024Z,4.37
2022-08-10T04:56:38.766Z,4.60
2022-08-10T04:59:08.533Z,4.27
2022-08-10T05:02:30.168Z,7.23
2022-08-10T05:04:37.515Z,4.27
2022-08-10T05:07:09.144Z,4.57
2022-08-10T05:10:02.556Z,4.33
2022-08-10T05:12:28.124Z,4.13
2022-08-10T05:14:56.648Z,3.97
2022-08-10T05:17:27.997Z,4.70
2022-08-10T05:20:03.719Z,5.00
2022-08-10T05:22:38.451Z,3.90
2022-08-10T05:25:10.346Z,4.33
2022-08-10T05:27:39.108Z,4.70
2022-08-10T05:30:09.458Z,4.60
2022-08-10T05:32:57.872Z,4.40
2022-08-10T05:35:27.614Z,3.80
2022-08-10T05:38:09.087Z,4.20
2022-08-10T05:40:46.253Z,3.73
2022-08-10T05:43:16.957Z,5.03
2022-08-10T05:46:19.636Z,3.70
2022-08-10T05:48:56.965Z,3.70
2022-08-10T05:51:24.563Z,3.93
2022-08-10T05:54:02.862Z,4.30
2022-08-10T05:56:54.192Z,3.70
2022-08-10T06:00:11.145Z,4.37
2022-08-10T06:02:30.898Z,3.80
2022-08-10T06:05:11.862Z,3.50
2022-08-10T06:07:42.698Z,4.03
2022-08-10T06:10:28.541Z,3.53
2022-08-10T06:13:29.653Z,3.37
2022-08-10T06:16:06.946Z,3.83
2022-08-10T06:18:37.041Z,4.00
2022-08-10T06:21:06.148Z,3.77
2022-08-10T06:23:35.807Z,3.60
2022-08-10T06:26:10.103Z,4.23
2022-08-10T06:29:01.953Z,3.73
2022-08-10T06:31:46.994Z,3.20
2022-08-10T06:34:20.572Z,3.40
2022-08-10T06:36:49.450Z,3.70
2022-08-10T06:39:32.976Z,3.67
2022-08-10T06:42:14.792Z,3.60
2022-08-10T06:44:55.370Z,3.10
2022-08-10T06:47:27.927Z,3.13
2022-08-10T06:49:59.646Z,2.90
2022-08-10T06:52:32.180Z,3.10
2022-08-10T06:55:05.524Z,3.20
2022-08-10T06:57:39.995Z,3.00
2022-08-10T07:00:11.743Z,3.33
2022-08-10T07:02:48.117Z,3.13
2022-08-10T07:05:21.382Z,2.60
2022-08-10T07:07:52.470Z,2.30
2022-08-10T07:10:23.782Z,2.50
2022-08-10T07:13:00.122Z,2.70
2022-08-10T07:15:59.766Z,3.00
2022-08-10T07:18:22.106Z,2.70
2022-08-10T07:20:54.170Z,2.70
2022-08-10T07:23:57.814Z,2.73
2022-08-10T07:26:15.437Z,3.33
2022-08-10T07:28:47.995Z,3.17
2022-08-10T07:31:54.895Z,3.00
2022-08-10T07:34:10.709Z,3.10
2022-08-10T07:36:41.841Z,3.77
2022-08-10T07:39:11.698Z,3.00
2022-08-10T07:41:42.999Z,3.10
2022-08-10T07:44:13.107Z,3.20
2022-08-10T07:46:53.831Z,2.80
2022-08-10T07:49:27.807Z,3.17
2022-08-10T07:51:57.548Z,2.87
2022-08-10T07:54:29.410Z,2.60
2022-08-10T07:57:05.357Z,3.00
2022-08-10T07:59:39.134Z,2.80
2022-08-10T08:02:14.878Z,2.53
2022-08-10T08:04:50.298Z,2.80
2022-08-10T08:07:21.445Z,2.33
2022-08-10T08:09:57.997Z,2.80
2022-08-10T08:12:31.464Z,2.70
2022-08-10T08:16:14.268Z,2.80
2022-08-10T08:18:00.553Z,2.60
2022-08-10T08:20:30.422Z,2.53
2022-08-10T08:24:06.698Z,3.07
2022-08-10T08:25:50.249Z,2.60
2022-08-10T08:28:19.284Z,2.60
2022-08-10T08:30:49.200Z,2.60
2022-08-10T08:33:42.145Z,2.20
2022-08-10T08:36:10.659Z,2.27
2022-08-10T08:38:40.052Z,2.30
2022-08-10T08:41:30.374Z,1.80
2022-08-10T08:44:07.439Z,2.27
2022-08-10T08:46:59.492Z,2.70
2022-08-10T08:50:05.765Z,1.40
2022-08-10T08:52:53.653Z,1.40
2022-08-10T08:55:55.201Z,1.10
2022-08-10T08:58:38.428Z,0.90
2022-08-10T09:01:23.403Z,1.40
2022-08-10T09:04:25.569Z,1.23
2022-08-10T09:07:39.508Z,1.60
2022-08-10T09:10:08.258Z,1.20
2022-08-10T09:12:49.229Z,1.30
2022-08-10T09:15:40.427Z,1.10
2022-08-10T09:18:21.101Z,1.30
2022-08-10T09:20:57.463Z,1.20
2022-08-10T09:24:05.208Z,1.30
2022-08-10T09:26:43.064Z,1.10
2022-08-10T09:29:14.650Z,1.03
2022-08-10T09:32:54.310Z,1.50
2022-08-10T09:36:22.444Z,1.30
2022-08-10T09:38:02.271Z,1.20
2022-08-10T09:41:00.641Z,1.40
2022-08-10T09:43:42.325Z,1.50
2022-08-10T09:46:33.599Z,1.37
2022-08-10T09:49:17.305Z,1.30
2022-08-10T09:52:03.683Z,1.15
2022-08-10T09:54:48.979Z,1.30
2022-08-10T09:57:44.313Z,1.10
2022-08-10T10:00:19.165Z,1.50
2022-08-10T10:03:06.536Z,1.35
2022-08-10T10:05:51.404Z,1.58
2022-08-10T10:08:33.827Z,1.20
2022-08-10T10:11:08.960Z,1.60
2022-08-10T10:14:03.121Z,1.20
2022-08-10T10:17:01.358Z,1.27
2022-08-10T10:19:44.735Z,1.30
2022-08-10T10:22:38.312Z,0.95
2022-08-10T10:25:19.738Z,1.10
2022-08-10T10:28:01.481Z,0.98
2022-08-10T10:30:40.252Z,1.00
2022-08-10T10:33:14.954Z,1.52
2022-08-10T10:35:52.378Z,1.00
2022-08-10T10:38:24.394Z,0.90
2022-08-10T10:41:03.327Z,1.10
2022-08-10T10:43:43.996Z,1.10
2022-08-10T10:46:28.033Z,1.10
2022-08-10T10:49:04.865Z,1.33
2022-08-10T10:51:39.977Z,1.02
2022-08-10T10:54:13.183Z,1.30
2022-08-10T10:56:53.667Z,1.35
2022-08-10T10:59:55.739Z,1.20
2022-08-10T11:02:39.000Z,1.25
2022-08-10T11:05:20.488Z,1.17
2022-08-10T11:08:01.186Z,1.45
2022-08-10T11:10:46.273Z,1.30
2022-08-10T11:14:25.410Z,1.30
2022-08-10T11:16:31.630Z,1.10
2022-08-10T11:19:12.038Z,0.95
2022-08-10T11:21:56.234Z,1.13
2022-08-10T11:24:48.051Z,1.23
2022-08-10T11:27:29.958Z,1.20
2022-08-10T11:30:07.450Z,0.98
2022-08-10T11:32:54.918Z,1.20
2022-08-10T11:35:35.020Z,1.13
2022-08-10T11:38:31.925Z,1.30
2022-08-10T11:42:06.137Z,1.25
2022-08-10T11:44:19.088Z,1.30
2022-08-10T11:46:54.971Z,1.30
2022-08-10T11:49:32.470Z,1.10
2022-08-10T11:52:08.104Z,1.23
2022-08-10T11:54:43.697Z,1.38
2022-08-10T11:57:13.924Z,1.30
2022-08-10T11:59:59.582Z,1.10
2022-08-10T12:02:34.638Z,1.27
2022-08-10T12:05:08.670Z,1.35
2022-08-10T12:10:03.972Z,1.23
2022-08-10T12:10:36.397Z,1.08
2022-08-10T12:14:19.757Z,1.33
2022-08-10T12:16:50.728Z,1.10
2022-08-10T12:19:25.602Z,1.33
2022-08-10T12:22:05.609Z,1.20
2022-08-10T12:24:41.879Z,1.30
2022-08-10T12:27:15.531Z,1.17
2022-08-10T12:29:51.047Z,1.20
2022-08-10T12:32:28.553Z,1.33
2022-08-10T12:35:02.791Z,1.00
2022-08-10T12:37:37.046Z,0.90
2022-08-10T12:40:34.415Z,0.90
2022-08-10T12:44:03.999Z,1.30
2022-08-10T12:46:06.770Z,0.95
2022-08-10T12:48:43.044Z,1.15
2022-08-10T12:51:18.976Z,1.30
2022-08-10T12:53:55.082Z,1.20
2022-08-10T12:56:29.364Z,1.00
2022-08-10T12:59:01.698Z,1.20
2022-08-10T13:02:07.438Z,0.90
2022-08-10T13:04:33.972Z,1.35
2022-08-10T13:07:04.377Z,1.10
2022-08-10T13:09:56.210Z,0.98
2022-08-10T13:12:44.678Z,1.10
2022-08-10T13:15:45.225Z,1.10
2022-08-10T13:18:18.767Z,0.95
2022-08-10T13:20:53.025Z,1.05
2022-08-10T13:23:25.070Z,1.48
2022-08-10T13:25:56.411Z,1.30
2022-08-10T13:28:40.116Z,0.90
2022-08-10T13:31:18.253Z,0.73
2022-08-10T13:34:40.260Z,0.80
2022-08-10T13:36:41.890Z,0.98
2022-08-10T13:39:14.133Z,0.88
2022-08-10T13:41:45.505Z,0.68
2022-08-10T13:44:21.649Z,0.88
2022-08-10T13:46:53.173Z,0.80
2022-08-10T13:49:22.469Z,0.60
2022-08-10T13:51:54.372Z,0.80
2022-08-10T13:54:28.673Z,0.90
2022-08-10T13:56:58.087Z,0.80
2022-08-10T14:00:36.349Z,0.80
2022-08-10T14:02:37.537Z,0.90
2022-08-10T14:05:08.375Z,0.82
2022-08-10T14:07:45.163Z,0.95
2022-08-10T14:11:04.110Z,0.90
2022-08-10T14:13:27.910Z,0.80
2022-08-10T14:15:58.797Z,0.98
2022-08-10T14:18:27.984Z,0.98
2022-08-10T14:21:00.098Z,0.75
2022-08-10T14:23:28.418Z,1.00
2022-08-10T14:26:03.116Z,0.85
2022-08-10T14:28:37.364Z,0.70
2022-08-10T14:31:10.911Z,1.08
2022-08-10T14:33:42.823Z,0.73
2022-08-10T14:36:19.159Z,0.65
2022-08-10T14:38:55.780Z,0.80
2022-08-10T14:42:01.084Z,0.60
2022-08-10T14:44:19.661Z,0.70
2022-08-10T14:46:55.718Z,0.68
2022-08-10T14:49:27.300Z,1.30
2022-08-10T14:52:02.592Z,0.70
2022-08-10T14:54:34.918Z,0.85
2022-08-10T14:57:11.242Z,0.82
2022-08-10T15:00:25.133Z,0.68
2022-08-10T15:02:55.873Z,0.70
2022-08-10T15:05:39.979Z,0.75
2022-08-10T15:08:12.107Z,0.70
2022-08-10T15:10:42.174Z,0.60
2022-08-10T15:13:33.472Z,0.60
2022-08-10T15:16:13.078Z,0.70
2022-08-10T15:18:57.854Z,0.75
2022-08-10T15:21:43.438Z,0.77
2022-08-10T15:24:36.612Z,0.85
2022-08-10T15:27:08.961Z,0.55
2022-08-10T15:29:56.774Z,0.75
2022-08-10T15:32:52.536Z,0.80
2022-08-10T15:35:42.001Z,0.80
2022-08-10T15:38:11.138Z,0.70
2022-08-10T15:40:52.187Z,0.60
2022-08-10T15:43:24.889Z,0.80
2022-08-10T15:46:00.013Z,0.70
2022-08-10T15:48:32.669Z,0.80
2022-08-10T15:51:07.512Z,0.93
2022-08-10T15:53:46.942Z,0.70
2022-08-10T15:56:28.374Z,0.82
2022-08-10T15:59:08.268Z,0.65
2022-08-10T16:02:14.621Z,0.70
2022-08-10T16:04:37.159Z,0.70
2022-08-10T16:07:10.542Z,0.75
2022-08-10T16:10:22.540Z,0.80
2022-08-10T16:12:40.350Z,0.50
2022-08-10T16:15:13.714Z,1.00
2022-08-10T16:17:55.485Z,0.93
2022-08-10T16:20:31.344Z,0.80
2022-08-10T16:23:04.897Z,0.90
2022-08-10T16:25:51.338Z,0.57
2022-08-10T16:28:24.112Z,0.82
2022-08-10T16:30:55.359Z,0.85
2022-08-10T16:33:26.227Z,0.85
2022-08-10T16:36:18.775Z,1.15
2022-08-10T16:38:51.432Z,0.70
2022-08-10T16:42:02.666Z,0.82
2022-08-10T16:44:12.903Z,1.15
2022-08-10T16:46:45.705Z,0.90
2022-08-10T16:49:18.504Z,0.90
2022-08-10T16:51:52.869Z,0.70
2022-08-10T16:54:27.517Z,0.88
2022-08-10T16:57:02.357Z,0.90
2022-08-10T16:59:38.997Z,0.80
2022-08-10T17:02:09.100Z,0.93
2022-08-10T17:04:47.319Z,0.70
2022-08-10T17:07:18.842Z,0.57
2022-08-10T17:09:58.608Z,0.80
2022-08-10T17:12:29.738Z,0.80
2022-08-10T17:15:09.432Z,0.73
2022-08-10T17:17:43.115Z,0.82
2022-08-10T17:20:32.141Z,0.80
2022-08-10T17:23:14.194Z,0.80
2022-08-10T17:25:50.726Z,0.88
2022-08-10T17:28:33.046Z,0.95
2022-08-10T17:31:24.022Z,0.68
2022-08-10T17:34:00.609Z,0.80
2022-08-10T17:36:34.934Z,1.02
2022-08-10T17:39:04.456Z,0.90
2022-08-10T17:41:36.809Z,0.93
2022-08-10T17:44:08.062Z,0.63
2022-08-10T17:46:39.937Z,0.77
2022-08-10T17:49:10.783Z,0.90
2022-08-10T17:51:40.909Z,0.85
2022-08-10T17:54:16.362Z,0.90
2022-08-10T17:56:47.657Z,0.63
2022-08-10T17:59:17.189Z,0.90
2022-08-10T18:01:58.359Z,0.80
2022-08-10T18:04:34.202Z,1.00
2022-08-10T18:07:11.466Z,1.00
2022-08-10T18:09:43.544Z,0.90
2022-08-10T18:12:18.674Z,0.65
2022-08-10T18:14:51.371Z,1.05
2022-08-10T18:17:23.013Z,1.20
2022-08-10T18:19:55.595Z,1.05
2022-08-10T18:22:25.241Z,1.00
2022-08-10T18:24:55.339Z,1.00
2022-08-10T18:28:01.656Z,0.85
2022-08-10T18:30:18.846Z,0.90
2022-08-10T18:32:50.587Z,0.60
2022-08-10T18:35:20.678Z,0.90
2022-08-10T18:37:52.172Z,0.82
2022-08-10T18:40:21.284Z,0.70
2022-08-10T18:44:06.777Z,1.10
2022-08-10T18:46:00.121Z,1.10
2022-08-10T18:48:38.638Z,1.20
2022-08-10T18:51:08.948Z,0.90
2022-08-10T18:53:41.355Z,0.82
2022-08-10T18:56:19.422Z,0.98
2022-08-10T18:59:09.935Z,1.10
2022-08-10T19:02:08.307Z,0.95
2022-08-10T19:04:56.510Z,1.10
2022-08-10T19:07:42.714Z,1.38
2022-08-10T19:10:25.250Z,1.00
2022-08-10T19:13:01.031Z,1.20
2022-08-10T19:15:40.324Z,1.38
2022-08-10T19:18:33.032Z,1.20
2022-08-10T19:21:12.794Z,1.52
2022-08-10T19:24:00.469Z,1.50
2022-08-10T19:26:44.015Z,1.50
2022-08-10T19:30:09.561Z,1.13
2022-08-10T19:32:33.534Z,1.20
2022-08-10T19:35:09.137Z,1.70
2022-08-10T19:37:45.027Z,1.42
2022-08-10T19:40:44.083Z,1.50
2022-08-10T19:44:00.480Z,1.50
2022-08-10T19:46:19.335Z,1.90
2022-08-10T19:49:00.250Z,1.83
2022-08-10T19:51:38.267Z,1.35
2022-08-10T19:54:14.859Z,1.60
2022-08-10T19:57:02.057Z,1.70
2022-08-10T20:00:16.935Z,1.98
2022-08-10T20:02:33.502Z,1.70
2022-08-10T20:05:09.329Z,1.35
2022-08-10T20:07:48.495Z,1.67
2022-08-10T20:10:22.955Z,1.70
2022-08-10T20:12:56.788Z,1.60
2022-08-10T20:15:41.604Z,1.45
2022-08-10T20:18:20.227Z,1.48
2022-08-10T20:20:53.091Z,1.60
2022-08-10T20:23:25.269Z,1.70
2022-08-10T20:25:58.541Z,1.88
2022-08-10T20:28:36.700Z,1.70
2022-08-10T20:31:11.608Z,1.73
2022-08-10T20:34:00.661Z,1.43
2022-08-10T20:36:34.949Z,1.63
2022-08-10T20:39:17.900Z,1.77
2022-08-10T20:41:58.796Z,1.25
2022-08-10T20:44:39.429Z,1.42
2022-08-10T20:47:13.006Z,1.55
2022-08-10T20:49:49.734Z,1.50
2022-08-10T20:52:20.221Z,1.25
2022-08-10T20:54:52.496Z,1.55
2022-08-10T20:57:54.790Z,1.70
2022-08-10T21:00:25.302Z,1.67
2022-08-10T21:03:21.086Z,1.80
2022-08-10T21:06:00.374Z,1.53
2022-08-10T21:08:44.332Z,1.42
2022-08-10T21:11:22.355Z,1.40
2022-08-10T21:14:13.348Z,1.48
2022-08-10T21:16:50.678Z,1.17
2022-08-10T21:19:39.466Z,1.60
2022-08-10T21:22:22.445Z,1.50
2022-08-10T21:25:02.178Z,1.80
2022-08-10T21:27:55.320Z,1.50
2022-08-10T21:30:37.778Z,2.10
2022-08-10T21:33:12.040Z,1.50
2022-08-10T21:35:45.095Z,1.57
2022-08-10T21:38:24.340Z,1.50
2022-08-10T21:41:56.941Z,1.47
2022-08-10T21:44:53.089Z,1.40
2022-08-10T21:48:06.948Z,2.40
2022-08-10T21:51:09.407Z,2.10
2022-08-10T21:54:07.477Z,1.90
2022-08-10T21:57:01.858Z,1.80
2022-08-10T21:59:56.436Z,1.60
2022-08-10T22:02:50.334Z,1.80
2022-08-10T22:05:42.762Z,1.50
2022-08-10T22:08:31.536Z,1.83
2022-08-10T22:11:21.578Z,2.70
2022-08-10T22:14:10.706Z,1.93
2022-08-10T22:17:05.105Z,1.73
2022-08-10T22:19:54.856Z,2.10
2022-08-10T22:22:56.269Z,1.97
2022-08-10T22:25:57.015Z,1.93
2022-08-10T22:28:48.736Z,2.30
2022-08-10T22:31:53.708Z,1.77
2022-08-10T22:35:02.695Z,2.13
2022-08-10T22:38:07.690Z,1.80
2022-08-10T22:40:53.922Z,2.20
2022-08-10T22:43:45.406Z,2.57
2022-08-10T22:46:37.822Z,2.57
2022-08-10T22:49:06.732Z,2.07
2022-08-10T22:52:01.638Z,1.90
2022-08-10T22:54:52.722Z,2.30
2022-08-10T22:57:38.800Z,2.27
2022-08-10T23:00:15.933Z,2.73
2022-08-10T23:02:52.397Z,2.33
2022-08-10T23:05:31.501Z,2.30
2022-08-10T23:08:05.591Z,2.87
2022-08-10T23:10:40.317Z,2.70
2022-08-10T23:13:12.766Z,2.47
2022-08-10T23:16:16.415Z,2.73
2022-08-10T23:19:07.091Z,2.70
2022-08-10T23:22:03.514Z,2.97
2022-08-10T23:24:37.329Z,2.67
2022-08-10T23:27:10.305Z,2.63
2022-08-10T23:39:26.601Z,3.10
2022-08-10T23:42:04.606Z,2.60
2022-08-10T23:44:37.254Z,2.50
2022-08-10T23:47:06.876Z,2.90
2022-08-10T23:49:36.864Z,2.90
2022-08-10T23:52:13.596Z,2.80
2022-08-10T23:54:52.060Z,2.53
2022-08-10T23:57:23.168Z,3.20
2022-08-10T23:59:58.185Z,2.97
